Time;durP1;ratioP1;P1;durP2;ratioP2;P2;SDS_P1;SDS_P2;PMS_P1;PMS_P2;Temp;Humidity;BMP_temperature;BMP_pressure;BME280_temperature;BME280_humidity;BME280_pressure;Samples;Min_cycle;Max_cycle;Signal;HPM_P1;HPM_P2
2023/06/22 00:00:34;;;;;;;9.07;5.22;;;19.30;99.90;;;;;;5056007;28;20057;-54
2023/06/22 00:03:00;;;;;;;8.52;5.00;;;19.30;99.90;;;;;;5055660;28;20036;-51
2023/06/22 00:05:28;;;;;;;7.88;5.00;;;19.20;99.90;;;;;;5056421;28;20384;-49
2023/06/22 00:07:54;;;;;;;7.50;4.88;;;19.20;99.90;;;;;;5055507;28;20132;-51
2023/06/22 00:10:21;;;;;;;7.18;5.32;;;19.10;99.90;;;;;;5055512;28;20468;-50
2023/06/22 00:12:48;;;;;;;7.55;5.18;;;19.10;99.90;;;;;;5055933;28;20037;-48
2023/06/22 00:15:15;;;;;;;10.15;5.30;;;19.00;99.90;;;;;;5055724;28;20029;-48
2023/06/22 00:17:42;;;;;;;9.15;6.15;;;19.00;99.90;;;;;;5055709;28;20041;-51
2023/06/22 00:20:10;;;;;;;11.30;5.88;;;18.90;99.90;;;;;;5056033;28;20476;-50
2023/06/22 00:22:38;;;;;;;8.27;5.30;;;18.70;99.90;;;;;;5055758;28;20051;-47
2023/06/22 00:25:05;;;;;;;7.80;5.82;;;18.70;99.90;;;;;;5055440;28;20422;-48
2023/06/22 00:27:32;;;;;;;7.78;5.40;;;18.60;99.90;;;;;;5055622;28;20115;-49
2023/06/22 00:29:58;;;;;;;8.45;5.55;;;18.70;99.90;;;;;;5055648;28;20045;-52
2023/06/22 00:32:27;;;;;;;9.45;5.18;;;18.70;99.90;;;;;;5054139;28;20095;-50
2023/06/22 00:34:54;;;;;;;10.13;5.30;;;18.70;99.90;;;;;;5055720;28;20114;-52
2023/06/22 00:37:25;;;;;;;8.88;5.70;;;18.60;99.90;;;;;;5054534;28;20053;-53
2023/06/22 00:39:52;;;;;;;8.43;5.80;;;18.60;99.90;;;;;;5053697;28;20140;-49
2023/06/22 00:42:19;;;;;;;9.60;5.55;;;18.60;99.90;;;;;;5053739;28;20107;-50
2023/06/22 00:44:46;;;;;;;11.48;5.78;;;18.50;99.90;;;;;;5055598;28;20076;-48
2023/06/22 00:47:13;;;;;;;9.75;5.22;;;18.50;99.90;;;;;;5053741;28;20061;-51
2023/06/22 00:49:41;;;;;;;10.68;5.68;;;18.40;99.90;;;;;;5054975;28;20041;-53
2023/06/22 00:52:09;;;;;;;8.57;5.53;;;18.30;99.90;;;;;;5055112;28;20370;-51
2023/06/22 00:54:35;;;;;;;11.98;5.82;;;18.30;99.90;;;;;;5054896;28;20097;-50
2023/06/22 00:57:02;;;;;;;8.07;5.30;;;18.30;99.90;;;;;;5053828;28;20045;-46
2023/06/22 00:59:29;;;;;;;10.80;6.05;;;18.30;99.90;;;;;;5054782;28;20057;-46
2023/06/22 01:01:56;;;;;;;10.07;6.00;;;18.20;99.90;;;;;;5054734;28;20044;-50
2023/06/22 01:04:25;;;;;;;7.63;6.10;;;18.20;99.90;;;;;;5053819;28;20414;-53
2023/06/22 01:06:51;;;;;;;8.93;5.90;;;18.20;99.90;;;;;;5054431;28;20040;-48
2023/06/22 01:09:18;;;;;;;11.60;6.20;;;18.10;99.90;;;;;;5053974;28;20041;-51
2023/06/22 01:11:45;;;;;;;8.93;5.95;;;18.10;99.90;;;;;;5054754;28;20060;-52
2023/06/22 01:14:12;;;;;;;10.40;6.15;;;18.00;99.90;;;;;;5054965;28;20072;-53
2023/06/22 01:16:39;;;;;;;8.75;5.88;;;18.00;99.90;;;;;;5054846;28;20052;-48
2023/06/22 01:19:06;;;;;;;9.07;5.72;;;18.00;99.90;;;;;;5054795;28;20053;-49
2023/06/22 01:21:32;;;;;;;8.18;6.10;;;18.00;99.90;;;;;;5054608;28;20369;-46
2023/06/22 01:23:59;;;;;;;8.50;6.15;;;17.90;99.90;;;;;;5054365;28;20136;-53
2023/06/22 01:26:27;;;;;;;7.90;6.13;;;17.90;99.90;;;;;;5054495;28;20041;-51
2023/06/22 01:28:54;;;;;;;8.80;5.90;;;17.80;99.90;;;;;;5054702;28;20064;-50
2023/06/22 01:31:21;;;;;;;9.18;6.32;;;17.80;99.90;;;;;;5054644;28;20040;-49
2023/06/22 01:33:48;;;;;;;7.05;6.00;;;17.80;99.90;;;;;;5054117;28;20043;-48
2023/06/22 01:36:14;;;;;;;7.93;5.85;;;17.80;99.90;;;;;;5052598;28;20044;-51
2023/06/22 01:38:41;;;;;;;8.90;6.05;;;17.80;99.90;;;;;;5054516;28;20102;-49
2023/06/22 01:41:08;;;;;;;11.10;6.63;;;17.70;99.90;;;;;;5053077;28;20033;-47
2023/06/22 01:43:35;;;;;;;10.20;6.07;;;17.70;99.90;;;;;;5054282;28;20045;-51
2023/06/22 01:46:02;;;;;;;7.70;5.78;;;17.70;99.90;;;;;;5052797;28;20037;-47
2023/06/22 01:48:28;;;;;;;8.30;5.97;;;17.70;99.90;;;;;;5052806;28;20041;-45
2023/06/22 01:50:55;;;;;;;8.88;6.05;;;17.60;99.90;;;;;;5053714;28;20040;-48
2023/06/22 01:53:22;;;;;;;8.80;6.40;;;17.50;99.90;;;;;;5053729;28;20045;-49
2023/06/22 01:55:51;;;;;;;12.30;6.25;;;17.50;99.90;;;;;;5053766;28;20033;-49
2023/06/22 01:58:17;;;;;;;8.40;5.43;;;17.60;99.90;;;;;;5052160;28;20049;-51
2023/06/22 02:00:44;;;;;;;11.45;5.75;;;17.60;99.90;;;;;;5053491;28;20093;-47
2023/06/22 02:03:11;;;;;;;8.88;5.72;;;17.50;99.90;;;;;;5053618;28;20045;-49
2023/06/22 02:05:38;;;;;;;8.85;5.95;;;17.40;99.90;;;;;;5052207;28;20119;-50
2023/06/22 02:08:05;;;;;;;12.40;6.72;;;17.40;99.90;;;;;;5053803;28;20132;-50
2023/06/22 02:10:32;;;;;;;8.70;5.75;;;17.40;99.90;;;;;;5053475;28;20393;-49
2023/06/22 02:12:58;;;;;;;12.00;6.28;;;17.40;99.90;;;;;;5053490;28;20477;-49
2023/06/22 02:15:25;;;;;;;8.07;6.18;;;17.30;99.90;;;;;;5052367;28;20477;-50
2023/06/22 02:17:54;;;;;;;7.57;6.00;;;17.30;99.90;;;;;;5052251;28;20045;-50
2023/06/22 02:20:21;;;;;;;9.40;5.85;;;17.30;99.90;;;;;;5052818;28;20045;-52
2023/06/22 02:22:48;;;;;;;7.47;5.30;;;17.30;99.90;;;;;;5053371;28;20060;-49
2023/06/22 02:25:14;;;;;;;10.38;6.13;;;17.30;99.90;;;;;;5053721;28;20037;-51
2023/06/22 02:27:41;;;;;;;11.18;6.50;;;17.30;99.90;;;;;;5053524;28;20120;-52
2023/06/22 02:30:09;;;;;;;9.30;5.78;;;17.30;99.90;;;;;;5051888;28;20041;-47
2023/06/22 02:32:41;;;;;;;9.73;5.95;;;17.20;99.90;;;;;;5051858;28;20468;-48
2023/06/22 02:35:08;;;;;;;8.15;5.90;;;17.10;99.90;;;;;;5053573;28;20118;-49
2023/06/22 02:37:35;;;;;;;7.25;5.45;;;17.10;99.90;;;;;;5053682;28;20040;-50
2023/06/22 02:40:03;;;;;;;9.90;5.97;;;17.20;99.90;;;;;;5051980;28;20079;-46
2023/06/22 02:42:29;;;;;;;8.32;5.85;;;17.10;99.90;;;;;;5053079;28;20045;-46
2023/06/22 02:44:56;;;;;;;8.52;6.28;;;17.10;99.90;;;;;;5052531;28;20051;-49
2023/06/22 02:47:23;;;;;;;8.38;6.25;;;17.00;99.90;;;;;;5053155;28;20098;-48
2023/06/22 02:49:50;;;;;;;9.73;6.15;;;17.00;99.90;;;;;;5053437;28;20110;-50
2023/06/22 02:52:17;;;;;;;10.00;5.32;;;17.10;99.90;;;;;;5052899;28;20496;-50
2023/06/22 02:54:45;;;;;;;9.80;6.35;;;17.00;99.90;;;;;;5052289;28;20114;-48
2023/06/22 02:57:13;;;;;;;7.40;5.80;;;17.00;99.90;;;;;;5051911;28;20479;-51
2023/06/22 02:59:42;;;;;;;7.43;5.80;;;17.00;99.90;;;;;;5051554;28;20075;-51
2023/06/22 03:02:11;;;;;;;7.88;5.57;;;17.00;99.90;;;;;;5051499;28;20053;-46
2023/06/22 03:04:38;;;;;;;8.80;5.68;;;17.00;99.90;;;;;;5051801;28;20558;-48
2023/06/22 03:07:05;;;;;;;8.48;5.88;;;16.90;99.90;;;;;;5035871;28;20048;-51
2023/06/22 03:09:33;;;;;;;8.25;6.10;;;16.80;99.90;;;;;;5052231;28;20064;-49
2023/06/22 03:12:02;;;;;;;8.57;6.15;;;16.80;99.90;;;;;;5052673;28;20492;-46
2023/06/22 03:14:42;;;;;;;8.52;6.07;;;16.70;99.90;;;;;;5051793;28;20072;-48
2023/06/22 03:17:10;;;;;;;8.88;5.80;;;16.70;99.90;;;;;;5051680;28;20049;-49
2023/06/22 03:19:37;;;;;;;9.52;5.78;;;16.70;99.90;;;;;;5051628;28;20103;-52
2023/06/22 03:22:04;;;;;;;14.10;6.00;;;16.60;99.90;;;;;;5051427;28;20049;-50
2023/06/22 03:24:31;;;;;;;8.43;5.65;;;16.60;99.90;;;;;;5051432;28;20041;-46
2023/06/22 03:26:58;;;;;;;8.13;6.03;;;16.50;99.90;;;;;;5051670;28;20056;-50
2023/06/22 03:29:25;;;;;;;8.30;5.93;;;16.50;99.90;;;;;;5053536;28;20052;-52
2023/06/22 03:31:56;;;;;;;10.95;6.45;;;16.50;99.90;;;;;;5053967;28;20045;-50
2023/06/22 03:34:23;;;;;;;9.15;5.88;;;16.40;99.90;;;;;;5055520;28;20048;-49
2023/06/22 03:36:52;;;;;;;9.50;5.95;;;16.40;99.90;;;;;;5056273;28;20507;-49
2023/06/22 03:39:20;;;;;;;10.15;6.15;;;16.30;99.90;;;;;;5056481;28;20045;-47
2023/06/22 03:41:47;;;;;;;7.97;6.07;;;16.30;99.90;;;;;;5055154;28;20041;-46
2023/06/22 03:44:14;;;;;;;6.40;5.38;;;16.30;99.90;;;;;;5054791;28;20044;-50
2023/06/22 03:46:42;;;;;;;7.63;6.45;;;16.20;99.90;;;;;;5055538;28;20076;-51
2023/06/22 03:49:09;;;;;;;11.68;6.60;;;16.20;99.90;;;;;;5056547;28;20056;-50
2023/06/22 03:51:35;;;;;;;9.52;6.07;;;16.20;99.90;;;;;;5056022;28;20041;-49
2023/06/22 03:54:02;;;;;;;8.70;6.05;;;16.20;99.90;;;;;;5056582;28;20040;-46
2023/06/22 03:56:29;;;;;;;10.35;6.50;;;16.20;99.90;;;;;;5055954;28;20037;-51
2023/06/22 03:58:56;;;;;;;10.45;6.80;;;16.20;99.90;;;;;;5056295;28;20045;-49
2023/06/22 04:01:23;;;;;;;12.32;7.30;;;16.20;99.90;;;;;;5056027;28;20045;-47
2023/06/22 04:03:49;;;;;;;9.88;6.97;;;16.20;99.90;;;;;;5056135;28;20049;-51
2023/06/22 04:06:16;;;;;;;7.70;6.10;;;16.30;99.90;;;;;;5055941;28;20045;-48
2023/06/22 04:08:43;;;;;;;10.57;6.30;;;16.20;99.90;;;;;;5055868;28;20048;-50
2023/06/22 04:11:10;;;;;;;9.20;6.22;;;16.30;99.90;;;;;;5055804;28;20061;-48
2023/06/22 04:13:37;;;;;;;10.15;6.93;;;16.20;99.90;;;;;;5056120;28;20075;-46
2023/06/22 04:16:04;;;;;;;11.32;6.80;;;16.30;99.90;;;;;;5055911;28;20069;-53
2023/06/22 04:18:31;;;;;;;9.75;6.47;;;16.30;99.90;;;;;;5055797;28;20075;-48
2023/06/22 04:20:57;;;;;;;10.00;6.70;;;16.40;99.90;;;;;;5055817;28;20435;-47
2023/06/22 04:23:24;;;;;;;12.80;7.10;;;16.40;99.90;;;;;;5055635;28;20041;-51
2023/06/22 04:25:51;;;;;;;9.20;6.78;;;16.50;99.90;;;;;;5055677;28;20128;-49
2023/06/22 04:28:18;;;;;;;10.10;6.93;;;16.50;99.90;;;;;;5054225;28;20041;-48
2023/06/22 04:30:47;;;;;;;8.80;7.05;;;16.60;99.90;;;;;;5055755;28;20041;-47
2023/06/22 04:33:14;;;;;;;11.32;6.97;;;16.60;99.90;;;;;;5055604;28;20033;-49
2023/06/22 04:35:41;;;;;;;7.82;6.63;;;16.60;99.90;;;;;;5055395;28;20059;-49
2023/06/22 04:38:08;;;;;;;11.63;6.63;;;16.70;99.90;;;;;;5055481;28;20136;-49
2023/06/22 04:40:35;;;;;;;10.02;6.47;;;16.70;99.90;;;;;;5055755;28;20386;-47
2023/06/22 04:43:02;;;;;;;9.05;6.35;;;16.60;99.90;;;;;;5055065;28;20083;-55
2023/06/22 04:45:29;;;;;;;8.73;6.20;;;16.70;99.90;;;;;;5056012;28;20387;-52
2023/06/22 04:47:56;;;;;;;11.35;6.93;;;16.70;99.90;;;;;;5055160;28;20049;-50
2023/06/22 04:50:23;;;;;;;6.85;6.15;;;16.70;99.90;;;;;;5055460;28;20067;-50
2023/06/22 04:52:50;;;;;;;6.68;5.68;;;16.70;99.90;;;;;;5055593;28;20460;-54
2023/06/22 04:55:18;;;;;;;11.00;6.60;;;16.70;99.90;;;;;;5055374;28;20041;-46
2023/06/22 04:57:48;;;;;;;9.73;6.05;;;16.80;99.90;;;;;;5054236;28;20353;-50
2023/06/22 05:00:17;;;;;;;9.15;6.25;;;16.80;99.90;;;;;;5055152;28;20057;-47
2023/06/22 05:02:44;;;;;;;11.90;6.00;;;16.80;99.90;;;;;;5054663;28;20059;-47
2023/06/22 05:05:13;;;;;;;9.13;6.55;;;16.80;99.90;;;;;;5055083;28;20045;-52
2023/06/22 05:07:42;;;;;;;8.40;5.68;;;16.80;99.90;;;;;;5054646;28;20377;-47
2023/06/22 05:10:10;;;;;;;10.18;6.40;;;16.90;99.90;;;;;;5055228;28;20114;-47
2023/06/22 05:12:37;;;;;;;10.50;6.53;;;16.90;99.90;;;;;;5053861;28;20037;-45
2023/06/22 05:15:04;;;;;;;8.35;6.43;;;17.00;99.90;;;;;;5054719;28;20036;-51
2023/06/22 05:17:31;;;;;;;8.98;6.30;;;17.20;99.90;;;;;;5055029;28;20041;-48
2023/06/22 05:19:57;;;;;;;9.82;5.95;;;17.40;99.90;;;;;;5054971;28;20123;-49
2023/06/22 05:22:24;;;;;;;10.82;6.22;;;17.60;99.90;;;;;;5054221;28;20051;-52
2023/06/22 05:24:51;;;;;;;10.70;5.88;;;17.80;99.90;;;;;;5054921;28;20041;-51
2023/06/22 05:27:20;;;;;;;9.75;6.78;;;17.90;99.90;;;;;;5054293;28;20099;-51
2023/06/22 05:29:46;;;;;;;8.27;6.20;;;18.00;99.90;;;;;;5054958;28;20041;-52
2023/06/22 05:32:13;;;;;;;9.32;6.22;;;18.10;99.90;;;;;;5054379;28;20040;-52
2023/06/22 05:34:40;;;;;;;9.55;5.97;;;18.20;99.90;;;;;;5054165;28;20037;-53
2023/06/22 05:37:09;;;;;;;7.95;5.57;;;18.30;99.90;;;;;;5054341;28;20474;-54
2023/06/22 05:39:37;;;;;;;10.02;6.03;;;18.40;99.90;;;;;;5054050;28;20463;-51
2023/06/22 05:42:04;;;;;;;9.52;5.93;;;18.50;99.90;;;;;;5053859;28;20067;-52
2023/06/22 05:44:35;;;;;;;7.18;5.53;;;18.50;99.90;;;;;;5053229;28;20083;-53
2023/06/22 05:47:02;;;;;;;8.73;5.93;;;18.50;99.90;;;;;;5054394;28;20107;-53
2023/06/22 05:49:32;;;;;;;7.55;6.30;;;18.50;99.90;;;;;;5054356;28;20127;-48
2023/06/22 05:51:59;;;;;;;9.25;5.63;;;18.60;99.90;;;;;;5054133;28;20116;-47
2023/06/22 05:54:26;;;;;;;8.27;6.18;;;18.60;99.90;;;;;;5053581;28;20350;-51
2023/06/22 05:56:53;;;;;;;8.10;5.65;;;18.80;99.90;;;;;;5053707;28;20472;-52
2023/06/22 05:59:20;;;;;;;7.85;5.45;;;18.90;99.90;;;;;;5052633;28;20381;-52
2023/06/22 06:01:50;;;;;;;9.05;6.07;;;19.00;99.90;;;;;;5053599;28;20580;-52
2023/06/22 06:04:17;;;;;;;8.00;5.50;;;19.00;99.90;;;;;;5053904;28;20060;-49
2023/06/22 06:06:43;;;;;;;7.88;5.65;;;19.00;99.90;;;;;;5054049;28;20079;-52
2023/06/22 06:09:11;;;;;;;9.15;5.28;;;19.10;99.90;;;;;;5054101;28;20037;-51
2023/06/22 06:11:38;;;;;;;8.90;5.75;;;19.20;99.90;;;;;;5054086;28;20083;-49
2023/06/22 06:14:05;;;;;;;11.20;5.88;;;19.20;99.90;;;;;;5053407;28;20039;-49
2023/06/22 06:16:31;;;;;;;8.05;6.07;;;19.30;99.90;;;;;;5053554;28;20048;-51
2023/06/22 06:18:58;;;;;;;7.93;6.05;;;19.30;99.90;;;;;;5054055;28;20045;-52
2023/06/22 06:21:25;;;;;;;10.43;6.20;;;19.30;99.90;;;;;;5053845;28;20049;-49
2023/06/22 06:23:55;;;;;;;11.63;6.38;;;19.30;99.90;;;;;;5053506;28;20065;-51
2023/06/22 06:26:29;;;;;;;11.38;6.95;;;19.30;99.90;;;;;;5053421;28;20048;-49
2023/06/22 06:28:56;;;;;;;10.25;6.72;;;19.30;99.90;;;;;;5053735;28;20041;-50
2023/06/22 06:31:23;;;;;;;9.20;7.13;;;19.20;99.90;;;;;;5053177;28;20037;-49
2023/06/22 06:33:50;;;;;;;11.35;7.00;;;19.10;99.90;;;;;;5053433;28;20045;-48
2023/06/22 06:36:17;;;;;;;9.88;6.72;;;19.10;99.90;;;;;;5053584;28;20047;-49
2023/06/22 06:38:44;;;;;;;10.85;6.93;;;19.20;99.90;;;;;;5053832;28;20045;-47
2023/06/22 06:41:11;;;;;;;10.85;6.85;;;19.30;99.90;;;;;;5053302;28;20041;-52
2023/06/22 06:43:37;;;;;;;8.90;6.88;;;19.40;99.90;;;;;;5053175;28;20128;-48
2023/06/22 06:46:04;;;;;;;10.82;6.70;;;19.50;99.90;;;;;;5053741;28;20049;-47
2023/06/22 06:48:31;;;;;;;10.55;7.40;;;19.60;99.90;;;;;;5053162;28;20045;-49
2023/06/22 06:50:58;;;;;;;11.43;7.82;;;19.50;99.90;;;;;;5053297;28;20045;-52
2023/06/22 06:53:25;;;;;;;9.63;7.55;;;19.50;99.90;;;;;;5053092;28;20073;-47
2023/06/22 06:55:51;;;;;;;10.85;7.80;;;19.60;99.90;;;;;;5053473;28;20063;-49
2023/06/22 06:58:19;;;;;;;11.40;7.07;;;19.70;99.90;;;;;;5051949;28;20526;-49
2023/06/22 07:00:46;;;;;;;14.63;7.80;;;19.80;99.90;;;;;;5053161;28;20060;-50
2023/06/22 07:03:12;;;;;;;10.93;6.85;;;19.90;99.90;;;;;;5052912;28;20041;-50
2023/06/22 07:05:39;;;;;;;11.40;7.68;;;20.00;99.90;;;;;;5053288;28;20041;-49
2023/06/22 07:08:06;;;;;;;8.95;6.70;;;20.10;99.90;;;;;;5056972;28;20084;-50
2023/06/22 07:10:33;;;;;;;12.55;7.68;;;20.00;99.90;;;;;;5057480;28;20062;-50
2023/06/22 07:13:00;;;;;;;11.00;7.00;;;19.80;99.90;;;;;;5055988;28;20067;-48
2023/06/22 07:15:26;;;;;;;10.05;6.82;;;19.70;99.90;;;;;;5057584;28;20037;-51
2023/06/22 07:17:53;;;;;;;10.68;6.78;;;19.70;99.90;;;;;;5056582;28;20043;-51
2023/06/22 07:20:20;;;;;;;8.40;6.60;;;19.80;99.90;;;;;;5056863;28;20552;-47
2023/06/22 07:22:47;;;;;;;12.15;7.03;;;19.80;99.90;;;;;;5056802;28;20507;-51
2023/06/22 07:25:17;;;;;;;10.88;7.07;;;19.90;99.90;;;;;;5056409;28;20053;-50
2023/06/22 07:27:44;;;;;;;10.32;7.10;;;19.90;99.90;;;;;;5056982;28;20123;-49
2023/06/22 07:30:11;;;;;;;12.57;7.40;;;19.80;99.90;;;;;;5056785;28;20041;-48
2023/06/22 07:32:38;;;;;;;11.65;7.18;;;19.90;99.90;;;;;;5056464;28;20132;-51
2023/06/22 07:35:06;;;;;;;10.23;6.40;;;19.80;99.90;;;;;;5056459;28;20045;-45
2023/06/22 07:37:33;;;;;;;8.90;6.80;;;19.80;99.90;;;;;;5056605;28;20563;-50
2023/06/22 07:40:00;;;;;;;11.88;6.90;;;19.90;99.90;;;;;;5055056;28;20395;-49
2023/06/22 07:42:28;;;;;;;12.38;7.32;;;20.00;99.90;;;;;;5055918;28;20091;-49
2023/06/22 07:44:55;;;;;;;11.13;7.05;;;20.00;99.90;;;;;;5057164;28;20048;-47
2023/06/22 07:47:25;;;;;;;10.05;7.28;;;20.00;99.90;;;;;;5056741;28;20053;-50
2023/06/22 07:49:54;;;;;;;11.85;6.88;;;20.10;99.90;;;;;;5056363;28;20098;-48
2023/06/22 07:52:21;;;;;;;9.93;6.60;;;20.10;99.90;;;;;;5056133;28;20064;-45
2023/06/22 07:54:48;;;;;;;10.85;6.45;;;20.20;99.90;;;;;;5056483;28;20033;-48
2023/06/22 07:57:14;;;;;;;13.38;7.45;;;20.30;99.90;;;;;;5056296;28;20044;-53
2023/06/22 07:59:41;;;;;;;10.98;6.60;;;20.20;99.90;;;;;;5056204;28;20056;-52
2023/06/22 08:02:09;;;;;;;12.40;6.50;;;20.10;99.90;;;;;;5056070;28;20051;-51
2023/06/22 08:04:36;;;;;;;10.65;6.60;;;20.20;99.90;;;;;;5056486;28;20447;-49
2023/06/22 08:07:03;;;;;;;11.18;6.82;;;20.30;99.90;;;;;;5056264;28;20045;-47
2023/06/22 08:09:30;;;;;;;10.15;6.90;;;20.30;99.90;;;;;;5055083;28;20069;-51
2023/06/22 08:11:57;;;;;;;12.52;6.53;;;20.40;99.90;;;;;;5056747;28;20430;-46
2023/06/22 08:14:24;;;;;;;10.50;6.65;;;20.30;99.90;;;;;;5055821;28;20045;-49
2023/06/22 08:16:50;;;;;;;10.05;6.80;;;20.40;99.90;;;;;;5055628;28;20033;-50
2023/06/22 08:19:17;;;;;;;10.43;6.13;;;20.40;99.90;;;;;;5054504;28;20045;-49
2023/06/22 08:21:44;;;;;;;10.82;6.30;;;20.40;99.90;;;;;;5056049;28;20040;-47
2023/06/22 08:24:11;;;;;;;14.02;7.32;;;20.50;99.90;;;;;;5055959;28;20548;-51
2023/06/22 08:26:38;;;;;;;10.55;6.38;;;20.50;99.90;;;;;;5055799;28;20047;-48
2023/06/22 08:29:04;;;;;;;10.45;6.30;;;20.60;99.90;;;;;;5054335;28;20060;-47
2023/06/22 08:31:33;;;;;;;8.85;6.43;;;20.70;99.90;;;;;;5055490;28;20040;-49
2023/06/22 08:34:00;;;;;;;11.23;7.47;;;20.80;99.90;;;;;;5055305;28;20041;-52
2023/06/22 08:36:30;;;;;;;11.60;7.03;;;20.80;99.90;;;;;;5055696;28;20476;-51
2023/06/22 08:38:57;;;;;;;10.95;6.63;;;20.80;99.90;;;;;;5055831;28;20542;-49
2023/06/22 08:41:25;;;;;;;8.95;6.45;;;20.80;99.90;;;;;;5055450;28;20037;-50
2023/06/22 08:43:52;;;;;;;10.82;6.10;;;20.90;99.90;;;;;;5055338;28;20072;-49
2023/06/22 08:46:22;;;;;;;10.70;5.93;;;21.10;99.90;;;;;;5055450;28;20415;-51
2023/06/22 08:48:49;;;;;;;9.88;6.53;;;21.20;99.90;;;;;;5055166;28;20083;-49
2023/06/22 08:51:15;;;;;;;9.68;5.88;;;21.30;99.90;;;;;;5055524;28;20094;-47
2023/06/22 08:53:43;;;;;;;11.95;5.30;;;21.30;99.90;;;;;;5055116;28;20123;-50
2023/06/22 08:56:09;;;;;;;11.48;5.97;;;21.40;99.90;;;;;;5055011;28;20476;-49
2023/06/22 08:58:36;;;;;;;9.13;5.03;;;21.50;99.90;;;;;;5055128;28;20373;-54
2023/06/22 09:01:04;;;;;;;7.35;5.30;;;21.50;99.90;;;;;;5054970;28;20044;-47
2023/06/22 09:03:32;;;;;;;6.30;5.35;;;21.50;99.90;;;;;;5054845;28;20044;-47
2023/06/22 09:05:59;;;;;;;8.32;5.55;;;21.60;99.90;;;;;;5055310;28;20040;-47
2023/06/22 09:08:26;;;;;;;8.23;4.93;;;21.50;99.90;;;;;;5054666;28;20041;-47
2023/06/22 09:10:53;;;;;;;10.57;5.40;;;21.60;99.90;;;;;;5055118;28;20037;-47
2023/06/22 09:13:20;;;;;;;10.55;4.30;;;21.70;99.90;;;;;;5054828;28;20047;-51
2023/06/22 09:15:47;;;;;;;12.38;5.20;;;21.90;99.90;;;;;;5054635;28;20041;-53
2023/06/22 09:18:14;;;;;;;7.45;4.80;;;22.00;99.90;;;;;;5054419;28;20049;-50
2023/06/22 09:20:41;;;;;;;8.43;4.63;;;22.20;99.90;;;;;;5054622;28;20043;-48
2023/06/22 09:23:07;;;;;;;9.23;5.18;;;22.40;99.60;;;;;;5054598;28;20111;-48
2023/06/22 09:25:34;;;;;;;7.45;4.97;;;22.50;99.50;;;;;;5054569;28;20121;-50
2023/06/22 09:28:01;;;;;;;7.32;5.35;;;22.50;99.30;;;;;;5054924;28;20033;-49
2023/06/22 09:30:28;;;;;;;7.38;5.10;;;22.70;99.50;;;;;;5054347;28;20040;-50
2023/06/22 09:32:55;;;;;;;10.10;4.80;;;23.00;99.00;;;;;;5054523;28;20047;-48
2023/06/22 09:35:22;;;;;;;7.93;4.97;;;23.20;98.90;;;;;;5054165;28;20100;-53
2023/06/22 09:37:49;;;;;;;6.95;4.72;;;23.50;98.30;;;;;;5054665;28;20125;-48
2023/06/22 09:40:16;;;;;;;8.18;4.72;;;23.60;98.00;;;;;;5054195;28;20040;-52
2023/06/22 09:42:44;;;;;;;9.40;4.10;;;23.70;97.60;;;;;;5054240;28;20435;-48
2023/06/22 09:45:10;;;;;;;6.15;4.00;;;23.80;97.50;;;;;;5054086;28;20527;-49
2023/06/22 09:47:37;;;;;;;8.63;3.78;;;24.00;97.60;;;;;;5054320;28;20053;-51
2023/06/22 09:50:04;;;;;;;7.18;4.28;;;24.00;97.10;;;;;;5053927;28;20483;-49
2023/06/22 09:52:31;;;;;;;7.93;4.75;;;24.10;96.70;;;;;;5053978;28;20033;-53
2023/06/22 09:55:15;;;;;;;6.05;4.20;;;24.10;97.10;;;;;;5054175;28;20036;-51
2023/06/22 09:57:42;;;;;;;7.70;3.90;;;24.20;97.00;;;;;;5054292;28;20037;-49
2023/06/22 10:00:09;;;;;;;4.80;3.78;;;24.30;96.50;;;;;;5054041;28;20049;-49
2023/06/22 10:02:36;;;;;;;6.93;4.43;;;24.30;96.20;;;;;;5054175;28;20495;-52
2023/06/22 10:05:03;;;;;;;8.80;4.38;;;24.30;96.30;;;;;;5053932;28;20128;-55
2023/06/22 10:07:30;;;;;;;7.35;4.40;;;24.40;96.20;;;;;;5053685;28;20047;-50
2023/06/22 10:09:56;;;;;;;11.75;4.35;;;24.40;95.00;;;;;;5052663;28;20045;-50
2023/06/22 10:12:23;;;;;;;8.40;4.78;;;24.20;94.80;;;;;;5053813;28;20098;-49
2023/06/22 10:14:50;;;;;;;8.02;4.78;;;24.10;95.00;;;;;;5053652;28;20037;-52
2023/06/22 10:17:17;;;;;;;8.23;5.05;;;24.10;94.80;;;;;;5053569;28;20071;-50
2023/06/22 10:19:44;;;;;;;8.50;4.82;;;24.00;95.20;;;;;;5053888;28;20380;-54
2023/06/22 10:22:11;;;;;;;8.98;5.10;;;23.90;94.80;;;;;;5053566;28;20045;-53
2023/06/22 10:24:44;;;;;;;7.32;5.00;;;23.90;94.80;;;;;;5053474;28;20462;-50
2023/06/22 10:27:11;;;;;;;8.75;4.50;;;23.90;94.70;;;;;;5053766;28;20049;-52
2023/06/22 10:29:38;;;;;;;10.00;4.90;;;23.90;94.80;;;;;;5053539;28;20041;-53
2023/06/22 10:32:04;;;;;;;6.57;4.55;;;24.00;94.60;;;;;;5053303;28;20037;-54
2023/06/22 10:34:31;;;;;;;9.63;4.75;;;24.00;94.40;;;;;;5053569;28;20361;-51
2023/06/22 10:36:58;;;;;;;7.80;4.18;;;24.10;94.30;;;;;;5053504;28;20112;-46
2023/06/22 10:39:25;;;;;;;7.57;4.20;;;24.10;93.90;;;;;;5053617;28;20041;-47
2023/06/22 10:41:52;;;;;;;5.80;4.35;;;24.10;94.00;;;;;;5055397;28;20446;-46
2023/06/22 10:44:18;;;;;;;5.82;4.10;;;24.20;93.50;;;;;;5057451;28;20045;-52
2023/06/22 10:46:45;;;;;;;8.70;3.65;;;24.20;93.90;;;;;;5057483;28;20045;-51
2023/06/22 10:49:12;;;;;;;5.45;3.25;;;24.40;93.60;;;;;;5057360;28;20037;-52
2023/06/22 10:51:39;;;;;;;7.78;3.92;;;24.60;92.90;;;;;;5057394;28;20387;-47
2023/06/22 10:54:05;;;;;;;13.30;4.50;;;24.70;92.50;;;;;;5057747;28;20533;-53
2023/06/22 10:56:33;;;;;;;7.95;3.92;;;24.90;92.00;;;;;;5057336;28;20048;-49
2023/06/22 10:59:01;;;;;;;5.80;3.50;;;25.00;92.30;;;;;;5056925;28;20560;-49
2023/06/22 11:01:28;;;;;;;4.70;3.33;;;25.20;91.70;;;;;;5057428;28;20369;-52
2023/06/22 11:04:01;;;;;;;5.05;3.20;;;25.20;91.30;;;;;;5057519;28;20129;-52
2023/06/22 11:06:28;;;;;;;7.15;4.10;;;25.10;91.60;;;;;;5057642;28;20041;-49
2023/06/22 11:08:55;;;;;;;5.03;3.65;;;24.90;91.60;;;;;;5056754;28;20087;-51
2023/06/22 11:11:42;;;;;;;6.72;4.10;;;24.90;91.60;;;;;;5057271;28;20037;-52
2023/06/22 11:14:09;;;;;;;5.82;3.30;;;24.80;91.50;;;;;;5057129;28;20037;-53
2023/06/22 11:16:36;;;;;;;7.22;3.50;;;24.90;91.30;;;;;;5057237;28;20045;-50
2023/06/22 11:19:03;;;;;;;6.15;3.08;;;24.90;91.30;;;;;;5056793;28;20036;-50
2023/06/22 11:21:30;;;;;;;5.10;3.20;;;25.00;90.70;;;;;;5056746;28;20407;-53
2023/06/22 11:23:56;;;;;;;7.07;3.80;;;24.90;90.60;;;;;;5056575;28;20537;-54
2023/06/22 11:26:23;;;;;;;5.43;3.90;;;24.90;90.60;;;;;;5056751;28;20120;-52
2023/06/22 11:28:50;;;;;;;5.47;3.55;;;24.90;90.70;;;;;;5056607;28;20061;-52
2023/06/22 11:31:17;;;;;;;6.07;3.40;;;25.00;90.80;;;;;;5057042;28;20033;-55
2023/06/22 11:33:52;;;;;;;4.43;2.90;;;24.90;90.30;;;;;;5056313;28;20040;-54
2023/06/22 11:36:19;;;;;;;4.45;3.17;;;24.90;90.20;;;;;;5056962;28;20041;-49
2023/06/22 11:38:46;;;;;;;4.20;2.75;;;24.90;90.20;;;;;;5056428;28;20128;-51
2023/06/22 11:41:12;;;;;;;4.72;3.50;;;24.90;90.50;;;;;;5056781;28;20045;-51
2023/06/22 11:43:39;;;;;;;5.35;3.33;;;25.00;90.10;;;;;;5056562;28;20037;-50
2023/06/22 11:46:06;;;;;;;5.63;3.30;;;24.90;89.70;;;;;;5054928;28;20123;-48
2023/06/22 11:48:33;;;;;;;6.10;3.30;;;25.00;89.80;;;;;;5056729;28;20095;-51
2023/06/22 11:51:00;;;;;;;10.60;3.80;;;25.20;90.20;;;;;;5056425;28;20041;-51
2023/06/22 11:53:27;;;;;;;5.47;3.47;;;25.30;90.10;;;;;;5055988;28;20132;-48
2023/06/22 11:55:54;;;;;;;8.40;3.13;;;25.40;89.60;;;;;;5056478;28;20048;-51
2023/06/22 11:58:22;;;;;;;6.10;3.25;;;25.60;90.30;;;;;;5056244;28;20044;-51
2023/06/22 12:00:48;;;;;;;4.05;3.00;;;25.80;88.60;;;;;;5055767;28;20111;-48
2023/06/22 12:03:18;;;;;;;4.47;2.50;;;25.90;88.90;;;;;;5055114;28;20045;-52
2023/06/22 12:05:46;;;;;;;8.45;3.10;;;25.90;87.30;;;;;;5056097;28;20095;-49
2023/06/22 12:08:13;;;;;;;3.88;2.80;;;25.90;86.00;;;;;;5056067;28;20139;-52
2023/06/22 12:10:40;;;;;;;6.63;2.85;;;26.00;85.30;;;;;;5056035;28;20404;-51
2023/06/22 12:13:07;;;;;;;8.68;3.47;;;26.10;86.10;;;;;;5054802;28;20091;-53
2023/06/22 12:15:34;;;;;;;6.15;3.08;;;26.20;86.00;;;;;;5056336;28;20391;-46
2023/06/22 12:18:01;;;;;;;6.07;2.80;;;26.30;85.90;;;;;;5056057;28;20048;-52
2023/06/22 12:20:28;;;;;;;5.97;3.20;;;26.40;86.00;;;;;;5056263;28;20045;-49
2023/06/22 12:22:58;;;;;;;5.80;2.65;;;26.60;86.50;;;;;;5055813;28;20450;-49
2023/06/22 12:25:25;;;;;;;5.72;2.97;;;26.70;85.50;;;;;;5055607;28;20488;-50
2023/06/22 12:27:51;;;;;;;6.35;3.10;;;26.70;85.50;;;;;;5055498;28;20037;-52
2023/06/22 12:30:18;;;;;;;4.97;3.20;;;26.70;85.30;;;;;;5055966;28;20375;-51
2023/06/22 12:32:45;;;;;;;6.45;3.15;;;26.70;85.20;;;;;;5055217;28;20435;-48
2023/06/22 12:35:13;;;;;;;3.97;2.90;;;26.70;85.60;;;;;;5055726;28;20045;-51
2023/06/22 12:37:41;;;;;;;6.50;2.65;;;26.70;85.30;;;;;;5055615;28;20036;-51
2023/06/22 12:40:07;;;;;;;5.55;2.70;;;26.70;84.90;;;;;;5055260;28;20102;-51
2023/06/22 12:42:34;;;;;;;3.60;2.47;;;26.70;84.80;;;;;;5055156;28;20052;-49